createdAt,value
2016-02-25T00:00:28.773Z,0
2016-02-25T00:01:28.730Z,0
2016-02-25T00:02:28.701Z,0
2016-02-25T00:03:28.672Z,0
2016-02-25T00:04:28.645Z,0
2016-02-25T00:05:28.615Z,0
2016-02-25T00:06:28.587Z,0
2016-02-25T00:07:28.542Z,0
2016-02-25T00:08:28.530Z,0
2016-02-25T00:09:28.486Z,0
2016-02-25T00:10:28.457Z,0
2016-02-25T00:11:28.429Z,0
2016-02-25T00:12:28.384Z,0
2016-02-25T00:13:28.355Z,0
2016-02-25T00:14:28.328Z,0
2016-02-25T00:15:28.299Z,0
2016-02-25T00:16:28.270Z,0
2016-02-25T00:17:28.227Z,0
2016-02-25T00:18:28.229Z,0
2016-02-25T00:19:28.232Z,0
2016-02-25T00:20:28.140Z,0
2016-02-25T00:21:28.113Z,0
2016-02-25T00:22:28.083Z,0
2016-02-25T00:23:28.070Z,0
2016-02-25T00:24:28.010Z,0
2016-02-25T00:25:27.982Z,0
2016-02-25T00:26:27.954Z,0
2016-02-25T00:27:27.925Z,0
2016-02-25T00:28:27.896Z,0
2016-02-25T00:29:27.883Z,0
2016-02-25T00:30:27.854Z,0
2016-02-25T00:31:27.810Z,0
2016-02-25T00:32:27.782Z,0
2016-02-25T00:33:27.737Z,0
2016-02-25T00:34:27.709Z,0
2016-02-25T00:35:27.681Z,0
2016-02-25T00:36:27.652Z,0
2016-02-25T00:37:27.624Z,0
2016-02-25T00:38:27.595Z,0
2016-02-25T00:39:27.567Z,0
2016-02-25T00:40:27.522Z,0
2016-02-25T00:41:27.509Z,0
2016-02-25T00:42:27.465Z,0
2016-02-25T00:43:27.436Z,0
2016-02-25T00:44:27.408Z,0
2016-02-25T00:45:27.380Z,0
2016-02-25T00:46:27.350Z,0
2016-02-25T00:47:27.323Z,0
2016-02-25T00:48:27.294Z,0
2016-02-25T00:49:27.250Z,0
2016-02-25T00:50:27.205Z,0
2016-02-25T00:51:27.177Z,0
2016-02-25T00:52:27.164Z,0
2016-02-25T00:53:27.135Z,0
2016-02-25T00:54:27.091Z,0
2016-02-25T00:55:27.046Z,0
2016-02-25T00:56:26.877Z,0
2016-02-25T00:57:26.990Z,0
2016-02-25T00:58:26.962Z,0
2016-02-25T00:59:26.932Z,0
2016-02-25T01:00:26.904Z,0
2016-02-25T01:01:26.876Z,0
2016-02-25T01:02:26.831Z,0
2016-02-25T01:03:26.818Z,0
2016-02-25T01:04:26.774Z,0
2016-02-25T01:05:26.761Z,0
2016-02-25T01:06:26.717Z,0
2016-02-25T01:07:26.689Z,0
2016-02-25T01:08:26.645Z,0
2016-02-25T01:09:26.616Z,0
2016-02-25T01:10:26.587Z,0
2016-02-25T01:11:26.559Z,0
2016-02-25T01:12:26.514Z,0
2016-02-25T01:13:26.502Z,0
2016-02-25T01:14:26.473Z,0
2016-02-25T01:15:26.444Z,0
2016-02-25T01:16:26.385Z,0
2016-02-25T01:17:26.372Z,0
2016-02-25T01:18:26.327Z,0
2016-02-25T01:19:26.314Z,0
2016-02-25T01:20:26.271Z,0
2016-02-25T01:21:26.242Z,0
2016-02-25T01:22:26.276Z,0
2016-02-25T01:23:26.169Z,0
2016-02-25T01:24:26.157Z,0
2016-02-25T01:25:26.127Z,0
2016-02-25T01:26:26.083Z,0
2016-02-25T01:27:25.321Z,0
2016-02-25T01:28:26.027Z,0
2016-02-25T01:29:25.998Z,0
2016-02-25T01:30:25.954Z,0
2016-02-25T01:31:25.940Z,0
2016-02-25T01:32:25.896Z,0
2016-02-25T01:33:25.868Z,0
2016-02-25T01:34:25.840Z,0
2016-02-25T01:35:25.795Z,0
2016-02-25T01:36:25.782Z,0
2016-02-25T01:37:25.738Z,0
2016-02-25T01:38:25.709Z,0
2016-02-25T01:39:25.681Z,0
2016-02-25T01:40:25.653Z,0
2016-02-25T01:41:25.609Z,0
2016-02-25T01:42:25.580Z,0
2016-02-25T01:43:25.551Z,0
2016-02-25T01:44:25.507Z,0
2016-02-25T01:45:25.495Z,0
2016-02-25T01:46:25.466Z,0
2016-02-25T01:47:25.421Z,0
2016-02-25T01:48:25.392Z,0
2016-02-25T01:49:25.380Z,0
2016-02-25T01:50:25.320Z,0
2016-02-25T01:51:25.308Z,0
2016-02-25T01:52:25.263Z,0
2016-02-25T01:53:25.235Z,0
2016-02-25T01:54:25.205Z,0
2016-02-25T01:55:25.161Z,0
2016-02-25T01:56:25.149Z,0
2016-02-25T01:57:25.120Z,0
2016-02-25T01:58:25.060Z,0
2016-02-25T01:59:25.047Z,0
2016-02-25T02:00:25.003Z,0
2016-02-25T02:01:24.990Z,0
2016-02-25T02:02:24.790Z,0
2016-02-25T02:03:24.918Z,0
2016-02-25T02:04:24.890Z,0
2016-02-25T02:05:24.954Z,0
2016-02-25T02:06:24.954Z,0
2016-02-25T02:07:24.705Z,0
2016-02-25T02:08:24.767Z,0
2016-02-25T02:09:24.760Z,0
2016-02-25T02:10:24.694Z,0
2016-02-25T02:11:24.664Z,0
2016-02-25T02:12:24.636Z,0
2016-02-25T02:13:24.607Z,0
2016-02-25T02:14:24.579Z,0
2016-02-25T02:15:24.550Z,0
2016-02-25T02:16:24.506Z,0
2016-02-25T02:17:24.477Z,0
2016-02-25T02:18:24.449Z,0
2016-02-25T02:19:24.421Z,0
2016-02-25T02:20:24.377Z,0
2016-02-25T02:21:24.349Z,0
2016-02-25T02:22:24.351Z,0
2016-02-25T02:23:24.290Z,0
2016-02-25T02:24:24.262Z,0
2016-02-25T02:25:24.218Z,0
2016-02-25T02:26:24.204Z,0
2016-02-25T02:27:24.160Z,0
2016-02-25T02:28:24.117Z,0
2016-02-25T02:29:24.088Z,0
2016-02-25T02:30:24.075Z,0
2016-02-25T02:31:24.031Z,0
2016-02-25T02:32:24.003Z,0
2016-02-25T02:33:23.974Z,0
2016-02-25T02:34:23.929Z,0
2016-02-25T02:35:23.914Z,0
2016-02-25T02:36:23.870Z,0
2016-02-25T02:37:23.842Z,0
2016-02-25T02:38:23.812Z,0
2016-02-25T02:39:23.784Z,0
2016-02-25T02:40:23.756Z,0
2016-02-25T02:41:23.727Z,0
2016-02-25T02:42:23.698Z,0
2016-02-25T02:43:23.655Z,0
2016-02-25T02:44:23.611Z,0
2016-02-25T02:45:23.581Z,0
2016-02-25T02:46:23.552Z,0
2016-02-25T02:47:23.525Z,0
2016-02-25T02:48:23.496Z,0
2016-02-25T02:49:23.467Z,0
2016-02-25T02:50:23.423Z,0
2016-02-25T02:51:23.394Z,0
2016-02-25T02:52:23.366Z,0
2016-02-25T02:53:23.337Z,0
2016-02-25T02:54:23.309Z,0
2016-02-25T02:55:23.265Z,0
2016-02-25T02:56:23.252Z,0
2016-02-25T02:57:23.207Z,0
2016-02-25T02:58:23.179Z,0
2016-02-25T02:59:23.150Z,0
2016-02-25T03:00:23.106Z,0
2016-02-25T03:01:23.077Z,0
2016-02-25T03:02:23.064Z,0
2016-02-25T03:03:23.036Z,0
2016-02-25T03:04:22.992Z,0
2016-02-25T03:05:22.952Z,0
2016-02-25T03:06:22.925Z,0
2016-02-25T03:07:22.895Z,0
2016-02-25T03:08:22.132Z,0
2016-02-25T03:09:22.823Z,0
2016-02-25T03:10:22.794Z,0
2016-02-25T03:11:22.766Z,0
2016-02-25T03:12:22.753Z,0
2016-02-25T03:13:22.552Z,0
2016-02-25T03:14:22.664Z,0
2016-02-25T03:15:22.635Z,0
2016-02-25T03:16:22.608Z,0
2016-02-25T03:17:22.563Z,0
2016-02-25T03:18:22.535Z,0
2016-02-25T03:19:22.505Z,0
2016-02-25T03:20:22.477Z,0
2016-02-25T03:21:22.465Z,0
2016-02-25T03:22:22.420Z,0
2016-02-25T03:23:22.392Z,0
2016-02-25T03:24:22.348Z,0
2016-02-25T03:25:22.335Z,0
2016-02-25T03:26:22.290Z,0
2016-02-25T03:27:22.262Z,0
2016-02-25T03:28:22.217Z,0
2016-02-25T03:29:22.204Z,0
2016-02-25T03:30:22.159Z,0
2016-02-25T03:31:22.132Z,0
2016-02-25T03:32:22.103Z,0
2016-02-25T03:33:22.059Z,0
2016-02-25T03:34:22.031Z,0
2016-02-25T03:35:22.003Z,0
2016-02-25T03:36:21.973Z,0
2016-02-25T03:37:21.945Z,0
2016-02-25T03:38:21.948Z,0
2016-02-25T03:39:21.872Z,0
2016-02-25T03:40:21.843Z,0
2016-02-25T03:41:21.814Z,0
2016-02-25T03:42:21.786Z,0
2016-02-25T03:43:21.774Z,0
2016-02-25T03:44:21.714Z,0
2016-02-25T03:45:21.686Z,0
2016-02-25T03:46:21.657Z,0
2016-02-25T03:47:21.627Z,0
2016-02-25T03:48:21.599Z,0
2016-02-25T03:49:21.555Z,0
2016-02-25T03:50:21.527Z,0
2016-02-25T03:51:21.513Z,0
2016-02-25T03:52:21.454Z,0
2016-02-25T03:53:20.753Z,0
2016-02-25T03:54:21.397Z,0
2016-02-25T03:55:21.368Z,0
2016-02-25T03:56:21.340Z,0
2016-02-25T03:57:21.295Z,0
2016-02-25T03:58:21.267Z,0
2016-02-25T03:59:21.238Z,0
2016-02-25T04:00:21.209Z,0
2016-02-25T04:01:21.181Z,0
2016-02-25T04:02:21.153Z,0
2016-02-25T04:03:21.109Z,0
2016-02-25T04:04:21.064Z,0
2016-02-25T04:05:21.054Z,0
2016-02-25T04:06:21.009Z,0
2016-02-25T04:07:20.998Z,0
2016-02-25T04:08:20.969Z,0
2016-02-25T04:09:20.924Z,0
2016-02-25T04:10:20.896Z,0
2016-02-25T04:11:20.852Z,0
2016-02-25T04:12:20.823Z,0
2016-02-25T04:13:20.794Z,0
2016-02-25T04:14:20.766Z,0
2016-02-25T04:15:20.722Z,0
2016-02-25T04:16:20.709Z,0
2016-02-25T04:17:20.649Z,0
2016-02-25T04:18:20.636Z,0
2016-02-25T04:19:20.592Z,0
2016-02-25T04:20:20.580Z,0
2016-02-25T04:21:20.535Z,0
2016-02-25T04:22:20.506Z,0
2016-02-25T04:23:20.462Z,0
2016-02-25T04:24:20.449Z,0
2016-02-25T04:25:20.404Z,0
2016-02-25T04:26:20.376Z,0
2016-02-25T04:27:20.333Z,0
2016-02-25T04:28:20.319Z,0
2016-02-25T04:29:20.290Z,0
2016-02-25T04:30:20.246Z,0
2016-02-25T04:31:20.234Z,0
2016-02-25T04:32:19.454Z,0
2016-02-25T04:33:20.161Z,0
2016-02-25T04:34:20.117Z,0
2016-02-25T04:35:20.103Z,0
2016-02-25T04:36:20.059Z,0
2016-02-25T04:37:20.000Z,0
2016-02-25T04:38:19.987Z,0
2016-02-25T04:39:19.958Z,0
2016-02-25T04:40:19.930Z,0
2016-02-25T04:41:19.886Z,0
2016-02-25T04:42:19.857Z,0
2016-02-25T04:43:19.828Z,0
2016-02-25T04:44:19.815Z,0
2016-02-25T04:45:19.756Z,0
2016-02-25T04:46:19.727Z,0
2016-02-25T04:47:19.699Z,0
2016-02-25T04:48:19.670Z,0
2016-02-25T04:49:19.625Z,0
2016-02-25T04:50:19.613Z,0
2016-02-25T04:51:19.569Z,0
2016-02-25T04:52:19.541Z,0
2016-02-25T04:53:19.496Z,0
2016-02-25T04:54:19.482Z,0
2016-02-25T04:55:19.438Z,0
2016-02-25T04:56:19.410Z,0
2016-02-25T04:57:19.365Z,0
2016-02-25T04:58:19.353Z,0
2016-02-25T04:59:19.324Z,0
2016-02-25T05:00:19.280Z,0
2016-02-25T05:01:19.252Z,0
2016-02-25T05:02:19.207Z,0
2016-02-25T05:03:19.195Z,0
2016-02-25T05:04:19.166Z,0
2016-02-25T05:05:19.122Z,0
2016-02-25T05:06:19.093Z,0
2016-02-25T05:07:19.049Z,0
2016-02-25T05:08:19.052Z,0
2016-02-25T05:09:18.836Z,0
2016-02-25T05:10:18.964Z,0
2016-02-25T05:11:18.935Z,0
2016-02-25T05:12:18.906Z,0
2016-02-25T05:13:18.862Z,0
2016-02-25T05:14:18.833Z,0
2016-02-25T05:15:18.806Z,0
2016-02-25T05:16:18.761Z,0
2016-02-25T05:17:18.733Z,0
2016-02-25T05:18:18.703Z,0
2016-02-25T05:19:18.675Z,0
2016-02-25T05:20:18.663Z,0
2016-02-25T05:21:18.619Z,0
2016-02-25T05:22:18.574Z,0
2016-02-25T05:23:18.592Z,0
2016-02-25T05:24:18.517Z,0
2016-02-25T05:25:18.488Z,0
2016-02-25T05:26:18.444Z,0
2016-02-25T05:27:18.432Z,0
2016-02-25T05:28:18.559Z,0
2016-02-25T05:29:18.358Z,0
2016-02-25T05:30:18.315Z,0
2016-02-25T05:31:18.286Z,0
2016-02-25T05:32:18.257Z,0
2016-02-25T05:33:18.228Z,0
2016-02-25T05:34:18.185Z,0
2016-02-25T05:35:18.156Z,0
2016-02-25T05:36:18.127Z,0
2016-02-25T05:37:18.099Z,0
2016-02-25T05:38:18.070Z,0
2016-02-25T05:39:18.042Z,0
2016-02-25T05:40:17.842Z,0
2016-02-25T05:41:17.970Z,0
2016-02-25T05:42:17.940Z,0
2016-02-25T05:43:17.895Z,0
2016-02-25T05:44:17.867Z,0
2016-02-25T05:45:17.839Z,0
2016-02-25T05:46:17.811Z,0
2016-02-25T05:47:17.625Z,0
2016-02-25T05:48:17.753Z,0
2016-02-25T05:49:17.552Z,0
2016-02-25T05:50:17.696Z,0
2016-02-25T05:51:17.652Z,0
2016-02-25T05:52:17.608Z,4
2016-02-25T05:53:17.610Z,4
2016-02-25T05:54:17.551Z,4
2016-02-25T05:55:17.506Z,0
2016-02-25T05:56:17.494Z,4
2016-02-25T05:57:17.449Z,8
2016-02-25T05:58:17.421Z,4
2016-02-25T05:59:17.393Z,4
2016-02-25T06:00:17.380Z,8
2016-02-25T06:01:17.335Z,12
2016-02-25T06:02:17.306Z,8
2016-02-25T06:03:17.262Z,16
2016-02-25T06:04:17.234Z,16
2016-02-25T06:05:17.190Z,20
2016-02-25T06:06:17.177Z,28
2016-02-25T06:07:17.132Z,32
2016-02-25T06:08:17.104Z,36
2016-02-25T06:09:17.075Z,44
2016-02-25T06:10:17.032Z,52
2016-02-25T06:11:17.018Z,60
2016-02-25T06:12:16.974Z,68
2016-02-25T06:13:16.945Z,80
2016-02-25T06:14:16.917Z,96
2016-02-25T06:15:16.889Z,112
2016-02-25T06:16:16.859Z,132
2016-02-25T06:17:16.816Z,148
2016-02-25T06:18:16.787Z,172
2016-02-25T06:19:16.743Z,192
2016-02-25T06:20:16.714Z,212
2016-02-25T06:21:16.686Z,240
2016-02-25T06:22:16.642Z,268
2016-02-25T06:23:16.628Z,300
2016-02-25T06:24:16.600Z,328
2016-02-25T06:25:16.556Z,364
2016-02-25T06:26:16.527Z,400
2016-02-25T06:27:16.499Z,440
2016-02-25T06:28:16.455Z,476
2016-02-25T06:29:16.427Z,520
2016-02-25T06:30:16.382Z,564
2016-02-25T06:31:16.369Z,608
2016-02-25T06:32:16.340Z,656
2016-02-25T06:33:16.296Z,704
2016-02-25T06:34:16.268Z,760
2016-02-25T06:35:16.239Z,816
2016-02-25T06:36:16.226Z,876
2016-02-25T06:37:16.166Z,940
2016-02-25T06:38:16.137Z,1004
2016-02-25T06:39:16.125Z,1084
2016-02-25T06:40:16.081Z,1184
2016-02-25T06:41:16.037Z,1312
2016-02-25T06:42:16.023Z,1468
2016-02-25T06:43:15.979Z,1636
2016-02-25T06:44:15.950Z,1772
2016-02-25T06:45:15.907Z,1884
2016-02-25T06:46:15.909Z,1996
2016-02-25T06:47:15.850Z,2048
2016-02-25T06:48:15.821Z,2148
2016-02-25T06:49:15.808Z,2236
2016-02-25T06:50:15.748Z,2328
2016-02-25T06:51:15.719Z,2380
2016-02-25T06:52:15.707Z,2380
2016-02-25T06:53:15.663Z,2284
2016-02-25T06:54:15.650Z,2208
2016-02-25T06:55:15.590Z,2188
2016-02-25T06:56:15.576Z,2240
2016-02-25T06:57:15.517Z,2340
2016-02-25T06:58:15.505Z,2460
2016-02-25T06:59:15.470Z,2584
2016-02-25T07:00:15.412Z,2684
2016-02-25T07:01:15.461Z,2748
2016-02-25T07:02:15.323Z,2768
2016-02-25T07:03:15.280Z,2768
2016-02-25T07:04:15.256Z,2776
2016-02-25T07:05:15.052Z,2748
2016-02-25T07:06:15.165Z,2676
2016-02-25T07:07:15.147Z,2620
2016-02-25T07:08:15.098Z,2572
2016-02-25T07:09:15.064Z,2584
2016-02-25T07:10:15.019Z,2624
2016-02-25T07:11:14.988Z,2688
2016-02-25T07:12:14.958Z,2776
2016-02-25T07:13:14.928Z,2888
2016-02-25T07:14:14.913Z,3056
2016-02-25T07:15:14.853Z,3248
2016-02-25T07:16:14.838Z,3448
2016-02-25T07:17:14.794Z,3704
2016-02-25T07:18:14.764Z,4044
2016-02-25T07:19:14.720Z,4424
2016-02-25T07:20:14.706Z,4736
2016-02-25T07:21:14.664Z,4964
2016-02-25T07:22:14.634Z,5136
2016-02-25T07:23:14.606Z,5200
2016-02-25T07:24:14.593Z,5280
2016-02-25T07:25:14.532Z,5356
2016-02-25T07:26:14.535Z,5360
2016-02-25T07:27:14.319Z,5512
2016-02-25T07:28:14.447Z,5668
2016-02-25T07:29:14.402Z,5760
2016-02-25T07:30:14.390Z,5900
2016-02-25T07:31:14.361Z,6072
2016-02-25T07:32:14.333Z,6240
2016-02-25T07:33:14.289Z,6492
2016-02-25T07:34:14.260Z,6616
2016-02-25T07:35:14.232Z,6636
2016-02-25T07:36:14.203Z,6480
2016-02-25T07:37:14.174Z,6420
2016-02-25T07:38:14.146Z,6324
2016-02-25T07:39:14.102Z,6252
2016-02-25T07:40:14.104Z,5972
2016-02-25T07:41:14.076Z,5812
2016-02-25T07:42:14.031Z,5696
2016-02-25T07:43:13.987Z,5520
2016-02-25T07:44:13.959Z,5612
2016-02-25T07:45:13.946Z,5652
2016-02-25T07:46:13.901Z,5492
2016-02-25T07:47:13.873Z,5288
2016-02-25T07:48:13.845Z,5176
2016-02-25T07:49:13.816Z,5040
2016-02-25T07:50:13.772Z,4940
2016-02-25T07:51:13.758Z,4828
2016-02-25T07:52:13.715Z,4760
2016-02-25T07:53:13.702Z,4704
2016-02-25T07:54:13.673Z,5112
2016-02-25T07:55:13.644Z,5360
2016-02-25T07:56:13.632Z,5392
2016-02-25T07:57:13.572Z,5460
2016-02-25T07:58:13.543Z,5544
2016-02-25T07:59:13.516Z,5548
2016-02-25T08:00:13.486Z,5688
2016-02-25T08:01:13.442Z,5776
2016-02-25T08:02:13.429Z,5636
2016-02-25T08:03:13.385Z,5556
2016-02-25T08:04:13.372Z,5584
2016-02-25T08:05:13.328Z,5584
2016-02-25T08:06:13.299Z,5612
2016-02-25T08:07:13.271Z,5544
2016-02-25T08:08:13.226Z,5624
2016-02-25T08:09:13.213Z,5876
2016-02-25T08:10:13.170Z,6072
2016-02-25T08:11:13.173Z,6192
2016-02-25T08:12:13.128Z,6176
2016-02-25T08:13:13.084Z,6060
2016-02-25T08:14:13.056Z,6008
2016-02-25T08:15:13.026Z,5980
2016-02-25T08:16:13.014Z,6108
2016-02-25T08:17:12.969Z,6248
2016-02-25T08:18:12.925Z,6308
2016-02-25T08:19:12.912Z,5892
2016-02-25T08:20:12.867Z,5116
2016-02-25T08:21:12.840Z,4808
2016-02-25T08:22:12.827Z,5196
2016-02-25T08:23:12.783Z,5488
2016-02-25T08:24:12.785Z,5892
2016-02-25T08:25:12.725Z,5888
2016-02-25T08:26:12.713Z,6028
2016-02-25T08:27:12.716Z,6220
2016-02-25T08:28:12.640Z,6128
2016-02-25T08:29:12.689Z,6156
2016-02-25T08:30:12.599Z,6164
2016-02-25T08:31:12.554Z,6328
2016-02-25T08:32:12.557Z,6260
2016-02-25T08:33:12.512Z,6316
2016-02-25T08:34:12.484Z,6436
2016-02-25T08:35:12.424Z,6464
2016-02-25T08:36:12.427Z,6408
2016-02-25T08:37:12.399Z,6488
2016-02-25T08:38:12.402Z,6700
2016-02-25T08:39:12.341Z,6676
2016-02-25T08:40:12.313Z,6744
2016-02-25T08:41:12.285Z,6640
2016-02-25T08:42:12.302Z,6752
2016-02-25T08:43:12.179Z,7400
2016-02-25T08:44:12.152Z,7796
2016-02-25T08:45:12.123Z,7644
2016-02-25T08:46:12.095Z,7244
2016-02-25T08:47:12.082Z,7168
2016-02-25T08:48:12.053Z,7420
2016-02-25T08:49:12.009Z,8068
2016-02-25T08:50:11.995Z,8356
2016-02-25T08:51:11.951Z,8320
2016-02-25T08:52:11.939Z,7456
2016-02-25T08:53:11.878Z,7000
2016-02-25T08:54:11.866Z,7260
2016-02-25T08:55:11.822Z,7364
2016-02-25T08:56:11.809Z,7608
2016-02-25T08:57:11.765Z,7308
2016-02-25T08:58:11.752Z,7176
2016-02-25T08:59:11.708Z,6752
2016-02-25T09:00:11.710Z,6772
2016-02-25T09:01:11.650Z,6940
2016-02-25T09:02:11.638Z,7128
2016-02-25T09:03:11.733Z,7228
2016-02-25T09:04:11.580Z,7540
2016-02-25T09:05:11.536Z,7244
2016-02-25T09:06:11.555Z,7448
2016-02-25T09:07:11.511Z,7312
2016-02-25T09:08:11.451Z,7248
2016-02-25T09:09:11.453Z,7316
2016-02-25T09:10:11.393Z,7332
2016-02-25T09:11:11.380Z,7180
2016-02-25T09:12:11.337Z,7396
2016-02-25T09:13:11.292Z,7560
2016-02-25T09:14:11.279Z,7472
2016-02-25T09:15:11.265Z,7508
2016-02-25T09:16:11.222Z,7688
2016-02-25T09:17:11.193Z,7624
2016-02-25T09:18:11.165Z,7620
2016-02-25T09:19:11.137Z,7664
2016-02-25T09:20:11.093Z,8380
2016-02-25T09:21:11.079Z,9400
2016-02-25T09:22:11.035Z,9816
2016-02-25T09:23:11.132Z,10172
2016-02-25T09:24:10.837Z,10716
2016-02-25T09:25:10.965Z,10764
2016-02-25T09:26:11.187Z,10604
2016-02-25T09:27:11.345Z,10524
2016-02-25T09:28:11.161Z,10644
2016-02-25T09:29:10.836Z,10480
2016-02-25T09:30:10.807Z,10176
2016-02-25T09:31:10.809Z,10160
2016-02-25T09:32:10.750Z,10140
2016-02-25T09:33:10.769Z,10068
2016-02-25T09:34:10.708Z,9936
2016-02-25T09:35:10.665Z,9832
2016-02-25T09:36:10.636Z,9524
2016-02-25T09:37:10.623Z,9380
2016-02-25T09:38:10.766Z,8836
2016-02-25T09:39:10.566Z,8056
2016-02-25T09:40:10.537Z,8284
2016-02-25T09:41:10.493Z,7892
2016-02-25T09:42:10.496Z,8184
2016-02-25T09:43:10.452Z,8320
2016-02-25T09:44:10.407Z,7992
2016-02-25T09:45:10.222Z,8496
2016-02-25T09:46:10.350Z,9380
2016-02-25T09:47:10.322Z,9592
2016-02-25T09:48:10.293Z,10624
2016-02-25T09:49:10.280Z,10108
2016-02-25T09:50:10.236Z,8932
2016-02-25T09:51:10.285Z,9160
2016-02-25T09:52:10.195Z,9272
2016-02-25T09:53:10.151Z,9584
2016-02-25T09:54:11.404Z,10504
2016-02-25T09:55:10.109Z,11728
2016-02-25T09:56:10.095Z,13448
2016-02-25T09:57:10.052Z,16420
2016-02-25T09:58:10.007Z,16740
2016-02-25T09:59:09.995Z,16324
2016-02-25T10:00:09.966Z,16652
2016-02-25T10:01:09.953Z,17700
2016-02-25T10:02:09.909Z,19424
2016-02-25T10:03:09.881Z,18944
2016-02-25T10:04:09.867Z,17008
2016-02-25T10:05:09.823Z,15292
2016-02-25T10:06:09.811Z,13856
2016-02-25T10:07:09.781Z,12704
2016-02-25T10:08:09.597Z,11684
2016-02-25T10:09:09.709Z,10816
2016-02-25T10:10:09.680Z,9920
2016-02-25T10:11:09.683Z,10332
2016-02-25T10:12:09.639Z,12528
2016-02-25T10:13:09.610Z,14344
2016-02-25T10:14:09.582Z,17824
2016-02-25T10:15:09.569Z,19520
2016-02-25T10:16:09.524Z,18432
2016-02-25T10:17:09.496Z,16452
2016-02-25T10:18:09.468Z,17212
2016-02-25T10:19:09.455Z,19136
2016-02-25T10:20:09.410Z,17824
2016-02-25T10:21:09.398Z,14008
2016-02-25T10:22:09.369Z,11868
2016-02-25T10:23:09.340Z,11368
2016-02-25T10:24:09.327Z,10996
2016-02-25T10:25:09.315Z,9396
2016-02-25T10:26:09.270Z,8868
2016-02-25T10:27:09.242Z,9500
2016-02-25T10:28:09.213Z,11484
2016-02-25T10:29:09.184Z,9160
2016-02-25T10:30:09.172Z,7164
2016-02-25T10:31:09.143Z,9000
2016-02-25T10:32:09.115Z,10768
2016-02-25T10:33:09.101Z,9124
2016-02-25T10:34:09.058Z,8156
2016-02-25T10:35:09.029Z,8944
2016-02-25T10:36:09.016Z,10004
2016-02-25T10:37:08.972Z,10984
2016-02-25T10:38:08.943Z,12440
2016-02-25T10:39:08.930Z,12172
2016-02-25T10:40:08.917Z,11432
2016-02-25T10:41:08.858Z,10848
2016-02-25T10:42:08.861Z,12684
2016-02-25T10:43:08.817Z,13292
2016-02-25T10:44:08.788Z,11652
2016-02-25T10:45:08.775Z,9984
2016-02-25T10:46:08.747Z,8232
2016-02-25T10:47:08.702Z,8740
2016-02-25T10:48:08.674Z,10744
2016-02-25T10:49:08.660Z,11104
2016-02-25T10:50:08.710Z,11252
2016-02-25T10:51:08.619Z,11988
2016-02-25T10:52:08.575Z,12272
2016-02-25T10:53:08.546Z,12748
2016-02-25T10:54:08.518Z,13420
2016-02-25T10:55:08.504Z,13652
2016-02-25T10:56:08.492Z,14696
2016-02-25T10:57:08.448Z,15980
2016-02-25T10:58:08.416Z,15176
2016-02-25T10:59:08.387Z,16808
2016-02-25T11:00:08.674Z,19808
2016-02-25T11:01:08.568Z,19936
2016-02-25T11:02:08.318Z,19104
2016-02-25T11:03:08.290Z,18496
2016-02-25T11:04:08.261Z,18752
2016-02-25T11:05:08.249Z,20000
2016-02-25T11:06:08.204Z,21312
2016-02-25T11:07:08.176Z,22816
2016-02-25T11:08:08.163Z,22816
2016-02-25T11:09:08.134Z,20832
2016-02-25T11:10:08.106Z,18912
2016-02-25T11:11:08.093Z,18464
2016-02-25T11:12:08.143Z,14620
2016-02-25T11:13:08.051Z,13308
2016-02-25T11:14:08.007Z,16408
2016-02-25T11:15:07.995Z,17760
2016-02-25T11:16:07.950Z,13912
2016-02-25T11:17:07.937Z,12616
2016-02-25T11:18:07.909Z,14648
2016-02-25T11:19:08.067Z,16452
2016-02-25T11:20:07.867Z,16532
2016-02-25T11:21:07.839Z,15532
2016-02-25T11:22:07.826Z,14232
2016-02-25T11:23:07.781Z,13744
2016-02-25T11:24:07.770Z,13232
2016-02-25T11:25:07.740Z,14944
2016-02-25T11:26:07.711Z,17984
2016-02-25T11:27:07.684Z,20864
2016-02-25T11:28:07.733Z,22272
2016-02-25T11:29:07.642Z,20832
2016-02-25T11:30:07.613Z,17312
2016-02-25T11:31:07.585Z,13564
2016-02-25T11:32:07.571Z,12856
2016-02-25T11:33:07.558Z,13872
2016-02-25T11:34:07.514Z,14704
2016-02-25T11:35:07.502Z,16172
2016-02-25T11:36:07.457Z,18016
2016-02-25T11:37:07.305Z,18272
2016-02-25T11:38:07.416Z,17536
2016-02-25T11:39:07.388Z,16072
2016-02-25T11:40:07.375Z,15368
2016-02-25T11:41:07.393Z,15364
2016-02-25T11:42:07.318Z,15792
2016-02-25T11:43:07.289Z,15532
2016-02-25T11:44:07.291Z,15524
2016-02-25T11:45:07.263Z,15552
2016-02-25T11:46:07.219Z,15068
2016-02-25T11:47:07.221Z,15216
2016-02-25T11:48:07.162Z,15436
2016-02-25T11:49:07.148Z,15992
2016-02-25T11:50:07.151Z,16208
2016-02-25T11:51:07.107Z,15648
2016-02-25T11:52:07.079Z,15524
2016-02-25T11:53:07.065Z,15196
2016-02-25T11:54:07.022Z,13744
2016-02-25T11:55:07.008Z,12640
2016-02-25T11:56:06.980Z,12016
2016-02-25T11:57:06.795Z,12204
2016-02-25T11:58:06.923Z,12880
2016-02-25T11:59:06.926Z,14376
2016-02-25T12:00:06.897Z,16428
2016-02-25T12:01:06.869Z,18240
2016-02-25T12:02:06.997Z,19168
2016-02-25T12:03:06.842Z,21408
2016-02-25T12:04:06.767Z,21984
2016-02-25T12:05:06.769Z,21568
2016-02-25T12:06:06.726Z,20928
2016-02-25T12:07:06.697Z,20480
2016-02-25T12:08:06.747Z,20224
2016-02-25T12:09:06.656Z,19712
2016-02-25T12:10:06.674Z,18848
2016-02-25T12:11:06.614Z,17952
2016-02-25T12:12:06.586Z,16872
2016-02-25T12:13:06.558Z,16912
2016-02-25T12:14:06.529Z,17076
2016-02-25T12:15:06.516Z,16852
2016-02-25T12:16:06.582Z,16676
2016-02-25T12:17:06.474Z,15956
2016-02-25T12:18:06.446Z,15076
2016-02-25T12:19:06.418Z,15596
2016-02-25T12:20:06.388Z,16220
2016-02-25T12:21:06.360Z,16468
2016-02-25T12:22:06.347Z,16180
2016-02-25T12:23:06.303Z,15164
2016-02-25T12:24:06.290Z,13212
2016-02-25T12:25:06.261Z,10896
2016-02-25T12:26:06.233Z,9276
2016-02-25T12:27:06.219Z,9664
2016-02-25T12:28:06.191Z,10252
2016-02-25T12:29:06.178Z,9308
2016-02-25T12:30:06.134Z,7524
2016-02-25T12:31:06.137Z,5920
2016-02-25T12:32:06.093Z,4920
2016-02-25T12:33:05.939Z,4716
2016-02-25T12:34:06.051Z,5348
2016-02-25T12:35:06.053Z,5964
2016-02-25T12:36:05.994Z,5352
2016-02-25T12:37:05.981Z,4768
2016-02-25T12:38:05.953Z,4956
2016-02-25T12:39:05.909Z,4828
2016-02-25T12:40:05.911Z,5632
2016-02-25T12:41:05.883Z,7340
2016-02-25T12:42:05.838Z,9492
2016-02-25T12:43:05.810Z,11080
2016-02-25T12:44:05.813Z,10460
2016-02-25T12:45:05.768Z,8740
2016-02-25T12:46:05.740Z,7424
2016-02-25T12:47:05.710Z,5800
2016-02-25T12:48:05.682Z,5064
2016-02-25T12:49:05.670Z,4828
2016-02-25T12:50:05.673Z,4688
2016-02-25T12:51:05.613Z,4580
2016-02-25T12:52:05.631Z,4256
2016-02-25T12:53:05.571Z,4012
2016-02-25T12:54:05.543Z,4252
2016-02-25T12:55:05.515Z,4544
2016-02-25T12:56:05.485Z,4112
2016-02-25T12:57:05.488Z,3512
2016-02-25T12:58:05.429Z,3112
2016-02-25T12:59:05.415Z,2932
2016-02-25T13:00:05.371Z,3008
2016-02-25T13:01:05.359Z,3024
2016-02-25T13:02:05.330Z,2908
2016-02-25T13:03:05.301Z,2696
2016-02-25T13:04:05.273Z,3104
2016-02-25T13:05:05.275Z,3108
2016-02-25T13:06:05.216Z,3408
2016-02-25T13:07:05.219Z,5148
2016-02-25T13:08:05.158Z,6820
2016-02-25T13:09:05.130Z,8164
2016-02-25T13:10:05.117Z,9864
2016-02-25T13:11:05.072Z,10564
2016-02-25T13:12:05.061Z,10952
2016-02-25T13:13:05.031Z,10692
2016-02-25T13:14:05.002Z,10268
2016-02-25T13:15:04.991Z,10052
2016-02-25T13:16:04.946Z,10064
2016-02-25T13:17:04.933Z,9764
2016-02-25T13:18:04.889Z,9172
2016-02-25T13:19:04.891Z,8812
2016-02-25T13:20:04.847Z,8648
2016-02-25T13:21:04.835Z,8604
2016-02-25T13:22:04.790Z,8620
2016-02-25T13:23:04.762Z,9100
2016-02-25T13:24:04.732Z,9920
2016-02-25T13:25:04.720Z,11040
2016-02-25T13:26:04.676Z,12532
2016-02-25T13:27:04.662Z,13560
2016-02-25T13:28:04.635Z,13676
2016-02-25T13:29:04.621Z,12876
2016-02-25T13:30:04.576Z,12372
2016-02-25T13:31:04.549Z,11188
2016-02-25T13:32:04.520Z,9984
2016-02-25T13:33:04.506Z,9464
2016-02-25T13:34:04.479Z,9580
2016-02-25T13:35:04.465Z,9568
2016-02-25T13:36:04.422Z,8864
2016-02-25T13:37:04.596Z,8120
2016-02-25T13:38:04.520Z,8044
2016-02-25T13:39:04.383Z,7864
2016-02-25T13:40:04.666Z,7580
2016-02-25T13:41:04.278Z,7948
2016-02-25T13:42:04.281Z,9244
2016-02-25T13:43:04.237Z,9720
2016-02-25T13:44:04.208Z,10188
2016-02-25T13:45:04.180Z,10028
2016-02-25T13:46:04.152Z,9380
2016-02-25T13:47:04.513Z,9072
2016-02-25T13:48:04.110Z,8948
2016-02-25T13:49:04.066Z,9020
2016-02-25T13:50:04.037Z,9364